This is the latest recevied weather packets stored in our database for station/object WA0LM. If no packets are shown the sender has not sent any weather packets the latest 10 day(s).
| Time | Temp. | Humidity | Pressure | Rain* | Wind** | Luminosity | Snow |
|---|---|---|---|---|---|---|---|
| 1777725134 | 3.33° C | 70% | 1016.5 hPa | 0 mm | - | 64 W/m² | - |
| 1777724830 | 2.78° C | 73% | 1016.4 hPa | 0 mm | - | 56 W/m² | - |
| 1777724526 | 2.22° C | 78% | 1016.6 hPa | 0 mm | - | 52 W/m² | - |
| 1777724225 | 1.67° C | 81% | 1016.6 hPa | 0 mm | - | 50 W/m² | - |
| 1777723923 | 1.11° C | 84% | 1016.5 hPa | 0 mm | - | 36 W/m² | - |
| 1777723619 | 0.56° C | 85% | 1016.5 hPa | 0 mm | - | 35 W/m² | - |
| 1777723316 | 0.56° C | 85% | 1016.5 hPa | 0 mm | - | 31 W/m² | - |
| 1777723013 | 0.56° C | 85% | 1016.6 hPa | 0 mm | - | 26 W/m² | - |
| 1777722709 | 0° C | 85% | 1016.5 hPa | 0 mm | - | 23 W/m² | - |
| 1777722406 | 0° C | 85% | 1016.5 hPa | 0 mm | - | 21 W/m² | - |
| 1777722103 | 0° C | 85% | 1016.4 hPa | 0 mm | - | 20 W/m² | - |
| 1777721800 | 0° C | 86% | 1016.5 hPa | 0 mm | - | 18 W/m² | - |
| 1777721498 | -0.56° C | 86% | 1016.6 hPa | 0 mm | - | 15 W/m² | - |
| 1777721196 | -0.56° C | 84% | 1016.5 hPa | 0 mm | - | 13 W/m² | - |
| 1777720893 | -0.56° C | 84% | 1016.6 hPa | 0 mm | - | 11 W/m² | - |
| 1777720591 | 0° C | 84% | 1016.6 hPa | 0 mm | - | 9 W/m² | - |
| 1777720288 | -0.56° C | 85% | 1016.5 hPa | 0 mm | - | 6 W/m² | - |
| 1777719986 | -0.56° C | 86% | 1016.5 hPa | 0 mm | - | 4 W/m² | - |
| 1777719683 | -0.56° C | 86% | 1016.4 hPa | 0 mm | - | 2 W/m² | - |
| 1777719380 | 0° C | 86% | 1016.4 hPa | 0 mm | - | 1 W/m² | - |
| 1777719077 | 0° C | 86% | 1016.4 hPa | 0 mm | - | 1 W/m² | - |
| 1777718774 | 0° C | 85% | 1016.4 hPa | 0 mm | - | 0 W/m² | - |
| 1777718472 | 0° C | 85% | 1016.5 hPa | 0 mm | - | 0 W/m² | - |
| 1777718169 | 0° C | 85% | 1016.5 hPa | 0 mm | - | 0 W/m² | - |
| 1777717867 | 0° C | 86% | 1016.5 hPa | 0 mm | - | 0 W/m² | - |
* Rain latest hour (hover to see other rain measurements)
** Current wind speed in m/s (hover to see current wind gust speed)